Time;durP1;ratioP1;P1;durP2;ratioP2;P2;SDS_P1;SDS_P2;PMS_P1;PMS_P2;Temp;Humidity;BMP_temperature;BMP_pressure;BME280_temperature;BME280_humidity;BME280_pressure;Samples;Min_cycle;Max_cycle;Signal;HPM_P1;HPM_P2
2022/09/25 00:00:47;;;;;;;4.95;4.10;;;;;;;5.52;100.00;99405.43;1740236;81;21044;-61
2022/09/25 00:03:14;;;;;;;4.92;3.83;;;;;;;5.52;100.00;99397.25;1727459;81;21145;-61
2022/09/25 00:05:44;;;;;;;5.15;4.05;;;;;;;5.53;100.00;99402.81;1733031;81;20954;-61
2022/09/25 00:08:11;;;;;;;4.60;4.10;;;;;;;5.51;100.00;99399.42;1715564;82;21072;-61
2022/09/25 00:10:42;;;;;;;5.30;4.80;;;;;;;5.49;100.00;99399.04;1731633;81;21013;-61
2022/09/25 00:13:09;;;;;;;5.85;4.53;;;;;;;5.46;100.00;99402.53;1721646;82;21028;-61
2022/09/25 00:15:37;;;;;;;5.50;4.20;;;;;;;5.45;100.00;99406.44;1734866;81;21151;-62
2022/09/25 00:18:04;;;;;;;4.55;3.50;;;;;;;5.42;100.00;99403.91;1728698;81;20971;-61
2022/09/25 00:20:31;;;;;;;4.37;3.60;;;;;;;5.40;100.00;99400.52;1727826;81;21049;-62
2022/09/25 00:23:01;;;;;;;4.70;3.55;;;;;;;5.39;100.00;99407.44;1736031;82;21437;-61
2022/09/25 00:25:27;;;;;;;5.15;4.00;;;;;;;5.37;100.00;99404.04;1729315;82;21092;-61
2022/09/25 00:27:55;;;;;;;4.70;4.05;;;;;;;5.36;100.00;99405.36;1735704;82;21734;-61
2022/09/25 00:30:22;;;;;;;4.92;3.62;;;;;;;5.34;100.00;99408.41;1714339;82;20989;-61
2022/09/25 00:32:50;;;;;;;5.15;3.83;;;;;;;5.30;100.00;99403.75;1733797;81;21037;-61
2022/09/25 00:35:17;;;;;;;4.53;3.72;;;;;;;5.28;100.00;99408.09;1728837;81;20986;-61
2022/09/25 00:37:44;;;;;;;4.67;3.92;;;;;;;5.27;100.00;99406.39;1739673;82;20985;-61
2022/09/25 00:40:10;;;;;;;6.58;4.20;;;;;;;5.28;100.00;99409.81;1726055;81;21739;-61
2022/09/25 00:42:37;;;;;;;7.28;3.98;;;;;;;5.25;100.00;99408.14;1721698;81;21184;-62
2022/09/25 00:45:08;;;;;;;4.62;3.87;;;;;;;5.24;100.00;99408.17;1733880;81;21073;-62
2022/09/25 00:47:56;;;;;;;4.75;4.00;;;;;;;5.21;100.00;99410.38;1725318;81;20954;-62
2022/09/25 00:50:50;;;;;;;5.25;4.67;;;;;;;5.19;100.00;99401.85;1738223;81;20926;-63
2022/09/25 00:53:24;;;;;;;6.60;5.17;;;;;;;5.19;100.00;99408.30;1731536;81;21255;-61
2022/09/25 00:55:51;;;;;;;7.28;5.87;;;;;;;5.18;100.00;99399.71;1727547;81;21437;-62
2022/09/25 00:58:21;;;;;;;10.95;6.70;;;;;;;5.18;100.00;99402.30;1729384;81;21012;-61
2022/09/25 01:00:48;;;;;;;6.30;5.70;;;;;;;5.18;100.00;99401.00;1730572;81;20998;-62
2022/09/25 01:03:16;;;;;;;6.67;5.17;;;;;;;5.21;100.00;99401.34;1732302;82;20962;-61
2022/09/25 01:05:43;;;;;;;7.87;5.92;;;;;;;5.23;100.00;99403.89;1731695;81;21796;-61
2022/09/25 01:08:14;;;;;;;8.25;6.78;;;;;;;5.22;100.00;99404.34;1730157;82;21467;-61
2022/09/25 01:10:41;;;;;;;7.83;5.97;;;;;;;5.21;100.00;99401.34;1734849;81;21061;-61
2022/09/25 01:13:07;;;;;;;8.25;6.15;;;;;;;5.19;100.00;99401.41;1728647;82;21040;-61
2022/09/25 01:16:11;;;;;;;6.03;5.22;;;;;;;5.18;100.00;99397.58;1714191;82;21687;-62
2022/09/25 01:19:03;;;;;;;;;;;;;;;5.17;100.00;99398.45;1737096;81;21210;-62
2022/09/25 01:21:59;;;;;;;6.83;5.65;;;;;;;5.15;100.00;99396.34;1728725;82;20136;-61
2022/09/25 01:24:42;;;;;;;6.97;5.10;;;;;;;5.10;100.00;99397.72;1735059;82;21053;-62
2022/09/25 01:27:20;;;;;;;6.70;5.60;;;;;;;5.05;100.00;99396.95;1731136;81;21218;-61
2022/09/25 01:30:13;;;;;;;10.55;6.10;;;;;;;5.01;100.00;99394.46;1733063;82;20957;-61
2022/09/25 01:33:14;;;;;;;7.67;5.90;;;;;;;5.00;100.00;99398.77;1733925;81;21733;-61
2022/09/25 01:35:56;;;;;;;8.35;5.42;;;;;;;4.99;100.00;99395.81;1738255;82;20938;-61
2022/09/25 01:38:37;;;;;;;6.40;5.35;;;;;;;5.00;100.00;99393.61;1734932;82;21544;-60
2022/09/25 01:41:23;;;;;;;4.90;4.15;;;;;;;5.02;100.00;99394.88;1736814;82;21038;-61
2022/09/25 01:44:00;;;;;;;7.60;4.58;;;;;;;5.02;100.00;99399.59;1717257;82;21757;-61
2022/09/25 01:46:42;;;;;;;5.03;4.00;;;;;;;5.02;100.00;99401.31;1729589;82;22106;-61
2022/09/25 01:49:14;;;;;;;4.25;3.85;;;;;;;5.02;100.00;99399.59;1734503;81;21002;-61
2022/09/25 01:55:45;;;;;;;5.65;4.70;;;;;;;5.00;100.00;99402.63;1685307;83;20998;-60
2022/09/25 01:58:31;;;;;;;4.75;4.25;;;;;;;4.98;100.00;99401.00;1684016;84;21007;-62
2022/09/25 02:01:06;;;;;;;6.33;4.62;;;;;;;4.97;100.00;99409.61;1683872;84;21272;-63
2022/09/25 02:03:38;;;;;;;4.33;3.90;;;;;;;4.94;100.00;99406.64;1682202;84;21473;-62
2022/09/25 02:06:05;;;;;;;4.92;4.42;;;;;;;4.94;100.00;99410.52;1677206;83;21115;-62
2022/09/25 02:08:51;;;;;;;5.67;4.47;;;;;;;4.93;100.00;99406.23;1685139;84;21086;-63
2022/09/25 02:11:18;;;;;;;4.92;4.35;;;;;;;4.92;100.00;99410.98;1687485;83;21100;-61
2022/09/25 02:13:59;;;;;;;6.30;4.22;;;;;;;4.91;100.00;99415.72;1684647;84;21275;-62
2022/09/25 02:16:30;;;;;;;5.17;4.22;;;;;;;4.90;100.00;99414.02;1684928;84;21067;-61
2022/09/25 02:21:55;;;;;;;5.22;4.12;;;;;;;4.87;100.00;99414.08;1679217;84;21542;-61
2022/09/25 02:24:47;;;;;;;6.22;4.40;;;;;;;4.85;100.00;99417.97;1687856;82;21036;-62
2022/09/25 02:27:15;;;;;;;5.30;4.45;;;;;;;4.84;100.00;99420.13;1735565;81;21255;-62
2022/09/25 02:29:42;;;;;;;5.90;5.08;;;;;;;4.83;100.00;99422.30;1716501;81;21001;-62
2022/09/25 02:32:11;;;;;;;5.58;4.75;;;;;;;4.81;100.00;99421.91;1733470;82;21166;-62
2022/09/25 02:34:38;;;;;;;5.83;5.03;;;;;;;4.80;100.00;99422.79;1726728;82;21105;-61
2022/09/25 02:37:14;;;;;;;6.10;5.22;;;;;;;4.80;100.00;99419.77;1730631;82;21064;-62
2022/09/25 02:39:42;;;;;;;5.05;4.55;;;;;;;4.80;100.00;99425.37;1712165;82;21169;-62
2022/09/25 02:42:49;;;;;;;5.42;4.60;;;;;;;4.79;100.00;99410.38;1737406;81;21002;-61
2022/09/25 02:45:44;;;;;;;6.10;4.80;;;;;;;4.81;100.00;99415.47;1738313;81;21473;-62
2022/09/25 02:48:19;;;;;;;10.10;5.35;;;;;;;4.81;100.00;99421.91;1732490;81;21576;-62
2022/09/25 02:51:01;;;;;;;5.97;4.90;;;;;;;4.79;100.00;99417.26;1737585;81;21546;-62
2022/09/25 02:53:39;;;;;;;7.20;4.40;;;;;;;4.77;100.00;99416.00;1727941;82;21146;-62
2022/09/25 02:56:35;;;;;;;5.55;4.80;;;;;;;4.77;100.00;99417.72;1729240;82;21037;-62
2022/09/25 02:59:09;;;;;;;7.22;5.25;;;;;;;4.75;100.00;99415.61;1734682;82;20958;-62
2022/09/25 03:01:38;;;;;;;6.67;5.95;;;;;;;4.73;100.00;99417.36;1733987;82;20985;-61
2022/09/25 03:04:06;;;;;;;6.90;5.28;;;;;;;4.71;100.00;99416.10;1737810;82;21032;-61
2022/09/25 03:06:32;;;;;;;6.15;5.37;;;;;;;4.70;100.00;99414.40;1717826;82;21190;-61
2022/09/25 03:09:00;;;;;;;6.62;5.83;;;;;;;4.70;100.00;99418.27;1727763;81;20982;-62
2022/09/25 03:11:27;;;;;;;7.60;6.67;;;;;;;4.70;100.00;99413.11;1733815;82;21012;-61
2022/09/25 03:14:00;;;;;;;6.90;6.20;;;;;;;4.70;100.00;99408.40;1716032;82;21390;-61
2022/09/25 03:16:41;;;;;;;7.70;6.00;;;;;;;4.68;100.00;99403.27;1729913;81;21541;-61
2022/09/25 03:19:07;;;;;;;8.38;5.40;;;;;;;4.66;100.00;99414.04;1732134;82;21469;-61
2022/09/25 03:21:34;;;;;;;5.60;4.97;;;;;;;4.62;100.00;99414.97;1736716;82;20938;-61
2022/09/25 03:24:01;;;;;;;7.37;5.00;;;;;;;4.61;100.00;99413.70;1735763;82;20961;-61
2022/09/25 03:26:28;;;;;;;7.20;5.60;;;;;;;4.58;100.00;99408.20;1738475;82;21001;-61
2022/09/25 03:28:56;;;;;;;6.87;5.85;;;;;;;4.57;100.00;99412.94;1735983;82;20933;-61
2022/09/25 03:31:22;;;;;;;7.87;6.47;;;;;;;4.58;100.00;99412.06;1731660;81;21146;-61
2022/09/25 03:33:49;;;;;;;7.58;6.15;;;;;;;4.58;100.00;99415.92;1731031;82;21481;-62
2022/09/25 03:36:19;;;;;;;7.72;5.70;;;;;;;4.58;100.00;99417.21;1732302;81;20962;-62
2022/09/25 03:38:48;;;;;;;6.90;5.22;;;;;;;4.57;100.00;99418.09;1732796;81;20961;-61
2022/09/25 03:41:19;;;;;;;6.35;5.75;;;;;;;4.54;100.00;99419.42;1734134;82;20988;-61
2022/09/25 03:43:47;;;;;;;8.10;6.08;;;;;;;4.53;100.00;99425.89;1735371;82;21184;-61
2022/09/25 03:46:14;;;;;;;7.58;6.55;;;;;;;4.50;100.00;99423.78;1732662;82;20969;-61
2022/09/25 03:48:41;;;;;;;9.25;6.33;;;;;;;4.47;100.00;99425.55;1733797;82;20958;-61
2022/09/25 03:51:08;;;;;;;6.80;5.72;;;;;;;4.44;100.00;99431.60;1735585;82;21006;-62
2022/09/25 03:53:35;;;;;;;6.65;5.72;;;;;;;4.43;100.00;99436.34;1738017;82;20997;-61
2022/09/25 03:56:04;;;;;;;8.15;6.42;;;;;;;4.43;100.00;99435.05;1727745;81;21140;-62
2022/09/25 03:58:31;;;;;;;8.25;5.95;;;;;;;4.40;100.00;99426.09;1737566;82;21017;-61
2022/09/25 04:00:58;;;;;;;7.70;6.22;;;;;;;4.40;100.00;99423.52;1730314;82;21497;-61
2022/09/25 04:03:28;;;;;;;11.30;5.80;;;;;;;4.39;100.00;99430.00;1732931;81;21453;-62
2022/09/25 04:05:56;;;;;;;8.55;5.75;;;;;;;4.37;100.00;99431.75;1730944;81;20965;-61
2022/09/25 04:08:25;;;;;;;9.80;5.25;;;;;;;4.38;100.00;99421.86;1732840;82;21073;-61
2022/09/25 04:10:55;;;;;;;8.45;5.33;;;;;;;4.47;100.00;99419.11;1736818;82;20981;-62
2022/09/25 04:13:23;;;;;;;7.50;5.90;;;;;;;4.62;100.00;99416.69;1730583;82;21002;-61
2022/09/25 04:15:50;;;;;;;8.23;5.28;;;;;;;4.82;100.00;99413.30;1733478;82;21221;-62
2022/09/25 04:18:17;;;;;;;7.35;5.40;;;;;;;5.02;100.00;99417.63;1732594;81;21021;-61
2022/09/25 04:20:44;;;;;;;11.08;5.50;;;;;;;5.13;100.00;99412.28;1726894;81;21108;-62
2022/09/25 04:23:10;;;;;;;6.50;5.70;;;;;;;5.17;100.00;99405.75;1728801;81;20961;-62
2022/09/25 04:25:38;;;;;;;9.13;5.60;;;;;;;5.20;100.00;99420.28;1734596;81;21009;-62
2022/09/25 04:28:05;;;;;;;11.45;6.05;;;;;;;5.22;100.00;99421.54;1733901;82;20950;-62
2022/09/25 04:30:33;;;;;;;8.30;5.70;;;;;;;5.21;100.00;99419.40;1734389;81;20996;-62
2022/09/25 04:35:46;;;;;;;11.75;6.53;;;;;;;5.24;100.00;99420.63;1734496;81;21060;-62
2022/09/25 04:38:13;;;;;;;9.18;7.33;;;;;;;5.28;100.00;99422.70;1727440;81;21148;-62
2022/09/25 04:40:40;;;;;;;12.50;6.60;;;;;;;5.33;100.00;99423.47;1730009;81;21054;-62
2022/09/25 04:43:06;;;;;;;11.55;6.25;;;;;;;5.38;100.00;99426.38;1728690;81;21045;-62
2022/09/25 04:45:35;;;;;;;14.60;6.40;;;;;;;5.44;100.00;99426.22;1729131;82;21457;-62
2022/09/25 04:48:04;;;;;;;7.15;5.50;;;;;;;5.51;100.00;99425.22;1739143;81;21540;-62
2022/09/25 04:50:32;;;;;;;10.32;5.87;;;;;;;5.61;100.00;99430.16;1707935;82;20954;-63
2022/09/25 04:53:00;;;;;;;11.15;5.87;;;;;;;5.70;100.00;99421.78;1728163;82;21037;-62
2022/09/25 04:55:27;;;;;;;7.85;6.10;;;;;;;5.79;100.00;99429.34;1736231;82;21056;-62
2022/09/25 04:57:55;;;;;;;8.75;6.40;;;;;;;5.88;100.00;99419.22;1741302;81;21128;-62
2022/09/25 05:00:23;;;;;;;9.70;5.30;;;;;;;5.99;100.00;99426.33;1731756;82;21034;-62
2022/09/25 05:02:49;;;;;;;7.53;5.08;;;;;;;6.08;100.00;99427.82;1735914;81;20997;-62
2022/09/25 05:05:17;;;;;;;8.58;5.65;;;;;;;6.19;100.00;99423.27;1734623;81;21009;-63
2022/09/25 05:07:59;;;;;;;6.92;5.72;;;;;;;6.28;100.00;99426.89;1742125;81;20953;-62
2022/09/25 05:10:32;;;;;;;11.73;6.33;;;;;;;6.37;100.00;99429.27;1725897;81;22518;-63
2022/09/25 05:13:01;;;;;;;6.45;5.22;;;;;;;6.45;100.00;99431.19;1734921;81;21073;-62
2022/09/25 05:15:30;;;;;;;7.40;5.05;;;;;;;6.53;100.00;99434.88;1729373;82;21037;-63
2022/09/25 05:18:08;;;;;;;12.03;5.80;;;;;;;6.61;100.00;99423.03;1723864;81;21084;-63
2022/09/25 05:20:34;;;;;;;8.90;5.67;;;;;;;6.70;100.00;99419.78;1735576;81;20943;-62
2022/09/25 05:23:03;;;;;;;10.93;6.12;;;;;;;6.81;100.00;99422.91;1716168;82;21150;-63
2022/09/25 05:25:30;;;;;;;5.97;5.17;;;;;;;6.91;100.00;99423.08;1730969;82;20958;-62
2022/09/25 05:27:58;;;;;;;6.53;5.05;;;;;;;7.02;100.00;99424.06;1732228;82;21561;-62
2022/09/25 05:30:26;;;;;;;7.50;5.37;;;;;;;7.12;100.00;99431.14;1727170;81;20985;-63
2022/09/25 05:32:57;;;;;;;7.28;5.85;;;;;;;7.20;100.00;99426.12;1731758;81;20948;-63
2022/09/25 05:35:23;;;;;;;6.50;5.12;;;;;;;7.30;100.00;99428.02;1730712;81;21229;-63
2022/09/25 05:37:51;;;;;;;14.07;6.67;;;;;;;7.39;100.00;99432.95;1735484;81;21458;-63
2022/09/25 05:40:19;;;;;;;5.50;4.35;;;;;;;7.46;100.00;99427.13;1733144;82;21481;-63
2022/09/25 05:42:46;;;;;;;6.55;5.20;;;;;;;7.54;100.00;99427.76;1730340;82;20989;-63
2022/09/25 05:45:14;;;;;;;7.97;5.30;;;;;;;7.63;100.00;99429.20;1735803;82;20997;-62
2022/09/25 05:47:41;;;;;;;5.60;4.42;;;;;;;7.69;100.00;99428.59;1719873;82;21341;-62
2022/09/25 05:50:12;;;;;;;11.33;5.67;;;;;;;7.76;100.00;99425.38;1727723;81;21131;-63
2022/09/25 05:52:40;;;;;;;5.85;4.40;;;;;;;7.82;100.00;99427.30;1718743;81;20977;-63
2022/09/25 05:55:09;;;;;;;6.35;4.53;;;;;;;7.92;100.00;99425.29;1737867;82;21017;-63
2022/09/25 05:57:37;;;;;;;9.63;4.40;;;;;;;8.01;100.00;99431.45;1732930;82;21045;-63
2022/09/25 06:00:07;;;;;;;5.87;4.25;;;;;;;8.10;100.00;99427.30;1732002;82;21117;-63
2022/09/25 06:02:36;;;;;;;9.80;5.47;;;;;;;8.18;100.00;99418.84;1732486;81;21513;-63
2022/09/25 06:05:03;;;;;;;6.42;5.50;;;;;;;8.28;100.00;99427.98;1731927;82;21010;-63
2022/09/25 06:07:30;;;;;;;5.22;4.45;;;;;;;8.39;100.00;99435.46;1736101;82;21497;-62
2022/09/25 06:09:56;;;;;;;4.37;3.98;;;;;;;8.49;100.00;99431.65;1730069;81;21033;-62
2022/09/25 06:12:24;;;;;;;7.20;4.67;;;;;;;8.60;100.00;99434.71;1724420;81;21029;-62
2022/09/25 06:14:52;;;;;;;8.53;5.15;;;;;;;8.69;100.00;99437.91;1729560;81;20951;-62
2022/09/25 06:17:20;;;;;;;7.75;4.78;;;;;;;8.77;100.00;99437.20;1729416;81;21057;-62
2022/09/25 06:19:46;;;;;;;7.90;4.58;;;;;;;8.86;100.00;99439.45;1724573;81;21069;-62
2022/09/25 06:22:13;;;;;;;9.23;4.22;;;;;;;8.97;100.00;99433.46;1733618;81;20955;-63
2022/09/25 06:24:40;;;;;;;6.47;4.00;;;;;;;9.07;100.00;99433.97;1728694;82;21235;-63
2022/09/25 06:27:07;;;;;;;17.02;6.80;;;;;;;9.16;100.00;99429.75;1734811;81;21076;-60
2022/09/25 06:29:34;;;;;;;10.75;4.78;;;;;;;9.24;100.00;99429.85;1731117;81;21499;-61
2022/09/25 06:32:02;;;;;;;12.80;5.70;;;;;;;9.33;100.00;99431.28;1732511;81;20958;-62
2022/09/25 06:34:29;;;;;;;6.72;4.92;;;;;;;9.43;100.00;99427.88;1728356;81;21476;-61
2022/09/25 06:36:56;;;;;;;9.05;4.75;;;;;;;9.54;100.00;99430.48;1734910;82;21199;-61
2022/09/25 06:39:22;;;;;;;11.88;4.87;;;;;;;9.65;100.00;99433.50;1734246;82;20946;-61
2022/09/25 06:41:52;;;;;;;5.33;3.95;;;;;;;9.77;100.00;99433.50;1728913;81;20970;-61
2022/09/25 06:44:21;;;;;;;8.50;4.40;;;;;;;9.89;100.00;99430.41;1732519;81;21167;-61
2022/09/25 06:46:50;;;;;;;6.78;4.55;;;;;;;10.00;100.00;99429.52;1733106;82;21017;-61
2022/09/25 06:49:17;;;;;;;8.83;5.53;;;;;;;10.11;100.00;99426.51;1733290;82;21839;-61
2022/09/25 06:51:44;;;;;;;7.35;5.65;;;;;;;10.23;100.00;99428.63;1735756;81;21379;-61
2022/09/25 06:54:11;;;;;;;13.50;5.17;;;;;;;10.36;100.00;99425.09;1739041;82;20989;-61
2022/09/25 06:56:38;;;;;;;9.58;4.90;;;;;;;10.48;100.00;99431.08;1743300;82;21119;-61
2022/09/25 06:59:04;;;;;;;6.37;4.90;;;;;;;10.60;100.00;99428.41;1737804;81;20953;-62
2022/09/25 07:01:33;;;;;;;6.60;4.28;;;;;;;10.70;100.00;99429.27;1725805;81;20990;-62
2022/09/25 07:04:02;;;;;;;4.83;4.08;;;;;;;10.77;100.00;99424.66;1738507;82;21009;-62
2022/09/25 07:06:30;;;;;;;4.08;3.65;;;;;;;10.85;100.00;99423.85;1737241;82;21092;-62
2022/09/25 07:08:57;;;;;;;3.83;2.90;;;;;;;10.96;100.00;99428.16;1726417;81;21057;-62
2022/09/25 07:11:26;;;;;;;7.42;3.98;;;;;;;11.07;100.00;99428.13;1727911;81;20992;-62
2022/09/25 07:13:53;;;;;;;9.33;4.10;;;;;;;11.16;100.00;99425.12;1726700;81;21193;-62
2022/09/25 07:16:23;;;;;;;8.98;4.75;;;;;;;11.26;100.00;99426.39;1732512;82;21044;-62
2022/09/25 07:18:52;;;;;;;9.68;3.77;;;;;;;11.37;100.00;99425.02;1727287;81;21488;-62
2022/09/25 07:21:21;;;;;;;5.62;3.70;;;;;;;11.48;99.08;99425.81;1725732;82;20950;-62
2022/09/25 07:23:49;;;;;;;4.83;4.05;;;;;;;11.56;98.88;99422.86;1731869;81;21014;-62
2022/09/25 07:26:22;;;;;;;10.68;4.30;;;;;;;11.64;98.02;99420.27;1729096;81;21151;-62
2022/09/25 07:29:03;;;;;;;5.40;3.90;;;;;;;11.70;98.16;99412.18;1733951;82;21084;-62
2022/09/25 07:31:32;;;;;;;6.87;3.75;;;;;;;11.82;97.54;99417.75;1734962;81;21057;-62
2022/09/25 07:34:07;;;;;;;4.72;3.70;;;;;;;11.92;96.68;99415.95;1714383;82;21118;-62
2022/09/25 07:36:31;;;;;;;4.25;3.40;;;;;;;12.00;96.08;99415.56;1737538;82;20966;-61
2022/09/25 07:38:59;;;;;;;5.28;3.52;;;;;;;12.08;95.05;99409.08;1713650;82;21461;-62
2022/09/25 07:41:26;;;;;;;5.03;3.08;;;;;;;12.18;94.97;99406.88;1711997;82;21188;-62
2022/09/25 07:43:56;;;;;;;13.85;7.05;;;;;;;12.30;93.98;99405.42;1710473;82;21350;-62
2022/09/25 07:46:27;;;;;;;6.35;4.35;;;;;;;12.42;93.18;99408.72;1733992;81;21008;-62
2022/09/25 07:48:54;;;;;;;11.35;5.37;;;;;;;12.54;91.94;99412.03;1730224;82;21443;-62
2022/09/25 07:51:21;;;;;;;7.08;2.85;;;;;;;12.66;90.25;99409.25;1737061;82;21250;-62
2022/09/25 07:53:48;;;;;;;4.42;2.40;;;;;;;12.78;87.72;99406.50;1736724;81;21005;-62
2022/09/25 07:56:16;;;;;;;4.28;2.40;;;;;;;12.85;84.61;99403.93;1737674;82;20993;-62
2022/09/25 07:58:43;;;;;;;3.12;2.05;;;;;;;12.92;84.35;99412.68;1733033;82;21017;-62
2022/09/25 08:01:11;;;;;;;3.85;2.60;;;;;;;13.01;83.90;99401.74;1733958;82;21722;-62
2022/09/25 08:03:38;;;;;;;6.37;2.58;;;;;;;13.12;82.75;99402.50;1734553;82;21130;-62
2022/09/25 08:06:12;;;;;;;3.83;2.67;;;;;;;13.19;81.96;99401.75;1730716;81;20950;-61
2022/09/25 08:08:42;;;;;;;5.67;2.42;;;;;;;13.27;81.36;99403.02;1734639;82;21087;-62
2022/09/25 08:11:12;;;;;;;4.55;2.10;;;;;;;13.36;79.44;99397.78;1709984;82;21034;-61
2022/09/25 08:13:39;;;;;;;3.62;1.70;;;;;;;13.45;77.85;99388.96;1738895;81;21678;-62
2022/09/25 08:16:12;;;;;;;2.33;1.82;;;;;;;13.54;77.10;99402.00;1721811;81;21026;-61
2022/09/25 08:18:41;;;;;;;1.90;1.67;;;;;;;13.61;75.73;99394.65;1714353;82;21635;-61
2022/09/25 08:21:08;;;;;;;2.25;2.08;;;;;;;13.66;75.04;99387.41;1736036;82;21057;-61
2022/09/25 08:23:35;;;;;;;5.78;2.27;;;;;;;13.70;74.28;99384.55;1735636;82;21510;-62
2022/09/25 08:26:03;;;;;;;2.90;2.10;;;;;;;13.77;72.94;99386.36;1735757;82;21461;-62
2022/09/25 08:28:29;;;;;;;4.42;1.75;;;;;;;13.81;72.25;99377.39;1738082;82;22034;-62
2022/09/25 08:31:00;;;;;;;1.90;1.80;;;;;;;13.85;71.31;99373.69;1735716;81;21076;-62
2022/09/25 08:33:27;;;;;;;2.52;1.75;;;;;;;13.89;70.49;99379.59;1726526;82;21171;-62
2022/09/25 08:35:58;;;;;;;2.47;2.00;;;;;;;13.92;70.25;99376.34;1713242;82;21067;-62
2022/09/25 08:38:26;;;;;;;2.67;1.98;;;;;;;13.95;70.08;99376.64;1730268;82;20942;-62
2022/09/25 08:41:00;;;;;;;4.35;1.75;;;;;;;13.99;70.25;99379.44;1733606;81;21151;-62
2022/09/25 08:43:26;;;;;;;5.00;1.85;;;;;;;14.06;69.50;99375.55;1718206;81;21097;-62
2022/09/25 08:49:08;;;;;;;2.10;1.90;;;;;;;14.19;68.54;99369.17;1733942;82;21256;-61
2022/09/25 08:51:43;;;;;;;3.05;2.02;;;;;;;14.28;67.46;99377.31;1737233;82;21116;-63
2022/09/25 08:54:16;;;;;;;2.90;1.90;;;;;;;14.38;66.86;99375.86;1724868;82;21180;-63
2022/09/25 08:56:43;;;;;;;6.33;2.10;;;;;;;14.52;66.52;99380.77;1733364;81;21076;-63
2022/09/25 08:59:29;;;;;;;2.50;1.85;;;;;;;14.67;65.67;99375.93;1733678;82;21010;-64
2022/09/25 09:02:05;;;;;;;2.83;2.15;;;;;;;14.93;63.84;99371.75;1733907;82;20966;-63
2022/09/25 09:04:36;;;;;;;2.85;2.25;;;;;;;14.98;63.81;99372.33;1734324;81;21402;-63
2022/09/25 09:07:09;;;;;;;5.50;2.40;;;;;;;14.98;63.81;99372.33;1734553;82;21324;-62
2022/09/25 09:09:44;;;;;;;3.95;2.25;;;;;;;15.02;62.13;99375.10;1727367;82;20954;-62
2022/09/25 09:12:21;;;;;;;3.87;2.33;;;;;;;15.03;62.29;99373.70;1730843;81;21168;-62
2022/09/25 09:14:51;;;;;;;5.28;2.67;;;;;;;15.30;62.07;99367.24;1729488;82;21048;-62
2022/09/25 09:17:24;;;;;;;6.53;2.70;;;;;;;15.30;62.07;99367.24;1731464;82;21144;-62
2022/09/25 09:19:59;;;;;;;2.83;2.22;;;;;;;15.46;62.26;99372.36;1733468;82;21166;-62
2022/09/25 09:22:31;;;;;;;2.58;2.20;;;;;;;15.60;60.62;99368.41;1688703;83;21729;-62
2022/09/25 09:25:09;;;;;;;8.60;2.90;;;;;;;15.72;61.13;99368.13;1683627;83;21640;-62
2022/09/25 09:28:05;;;;;;;2.67;2.27;;;;;;;15.87;60.11;99365.81;1736933;82;20966;-62
2022/09/25 09:30:43;;;;;;;4.75;2.50;;;;;;;16.09;59.38;99362.64;1735386;82;21010;-63
2022/09/25 09:33:44;;;;;;;2.95;2.62;;;;;;;16.32;58.59;99358.50;1734201;81;21161;-62
2022/09/25 09:36:43;;;;;;;3.80;2.33;;;;;;;16.61;56.36;99363.92;1711320;82;21517;-61
2022/09/25 09:39:28;;;;;;;3.17;2.33;;;;;;;16.61;56.36;99363.92;1734852;81;21005;-62
2022/09/25 09:42:09;;;;;;;3.10;2.50;;;;;;;16.65;55.94;99361.50;1727323;82;21065;-62
2022/09/25 09:45:08;;;;;;;2.70;2.27;;;;;;;16.66;56.11;99357.93;1730019;81;21006;-63
2022/09/25 09:48:11;;;;;;;4.87;3.37;;;;;;;16.74;55.62;99352.16;1724015;81;21166;-62
2022/09/25 09:50:49;;;;;;;4.65;3.10;;;;;;;16.79;54.66;99355.30;1736302;82;21465;-62
2022/09/25 09:53:50;;;;;;;5.47;2.75;;;;;;;16.71;55.40;99365.03;1730285;82;20997;-62
2022/09/25 09:56:34;;;;;;;3.02;2.72;;;;;;;16.71;55.40;99365.03;1725921;82;21041;-61
2022/09/25 09:59:06;;;;;;;3.22;2.58;;;;;;;16.67;56.12;99363.55;1735880;82;20926;-62
2022/09/25 10:01:36;;;;;;;10.80;2.87;;;;;;;16.68;55.77;99358.67;1732578;82;21565;-62
2022/09/25 10:04:23;;;;;;;3.05;2.27;;;;;;;16.71;55.42;99359.77;1736212;82;21116;-61
2022/09/25 10:06:57;;;;;;;4.35;2.98;;;;;;;16.72;55.21;99348.80;1728033;82;21091;-62
2022/09/25 10:09:25;;;;;;;2.42;2.20;;;;;;;16.74;54.67;99350.38;1737844;82;20963;-63
2022/09/25 10:12:08;;;;;;;4.00;2.47;;;;;;;16.73;54.61;99342.60;1734486;82;21045;-62
2022/09/25 10:14:38;;;;;;;6.35;3.05;;;;;;;16.76;53.65;99351.59;1733875;81;21953;-62
2022/09/25 10:17:05;;;;;;;4.75;2.85;;;;;;;16.73;54.52;99344.76;1723861;82;20991;-61
2022/09/25 10:19:56;;;;;;;2.70;2.40;;;;;;;16.72;53.05;99328.63;1731284;82;21048;-62
2022/09/25 10:22:36;;;;;;;8.68;3.30;;;;;;;16.74;53.08;99331.99;1729516;81;21081;-62
2022/09/25 10:25:06;;;;;;;5.95;2.87;;;;;;;16.80;53.66;99328.08;1730135;81;20986;-63
2022/09/25 10:27:44;;;;;;;6.10;3.25;;;;;;;16.91;53.92;99322.94;1740496;82;21588;-62
2022/09/25 10:30:14;;;;;;;3.95;2.50;;;;;;;17.00;53.30;99311.77;1734429;81;21101;-63
2022/09/25 10:32:48;;;;;;;8.78;2.60;;;;;;;17.06;52.88;99310.03;1727543;81;21080;-62
2022/09/25 10:35:20;;;;;;;2.72;2.52;;;;;;;17.14;53.57;99304.25;1727205;81;21128;-61
2022/09/25 10:37:51;;;;;;;2.72;2.17;;;;;;;17.24;52.23;99303.95;1732959;81;20993;-63
2022/09/25 10:40:26;;;;;;;3.47;2.72;;;;;;;17.34;52.00;99305.45;1732369;81;21818;-63
2022/09/25 10:43:19;;;;;;;3.30;2.70;;;;;;;17.38;51.56;99295.93;1735422;82;21126;-62
2022/09/25 10:45:48;;;;;;;4.25;2.83;;;;;;;17.37;52.23;99307.40;1731833;81;21022;-63
2022/09/25 10:51:16;;;;;;;4.10;2.55;;;;;;;17.33;53.29;99304.61;1701938;82;20965;-63
2022/09/25 10:53:45;;;;;;;2.77;2.50;;;;;;;17.51;52.93;99295.40;1724644;82;21803;-64
2022/09/25 10:56:23;;;;;;;3.37;2.30;;;;;;;17.62;50.96;99295.91;1735645;82;21215;-61
2022/09/25 10:58:54;;;;;;;10.08;3.52;;;;;;;17.63;50.00;99300.22;1729434;82;20970;-61
2022/09/25 11:01:21;;;;;;;8.35;3.58;;;;;;;17.63;50.20;99290.19;1733828;82;21473;-62
2022/09/25 11:03:54;;;;;;;3.10;2.77;;;;;;;17.65;49.38;99280.42;1714725;82;21165;-62
2022/09/25 11:06:26;;;;;;;4.80;2.42;;;;;;;17.63;49.29;99275.72;1736395;82;21436;-62
2022/09/25 11:09:06;;;;;;;6.25;2.55;;;;;;;17.58;48.55;99272.61;1734805;82;20989;-63
2022/09/25 11:11:33;;;;;;;3.42;2.70;;;;;;;17.47;48.19;99268.95;1733929;81;21569;-62
2022/09/25 11:14:02;;;;;;;4.03;2.40;;;;;;;17.39;48.95;99269.14;1734285;82;21022;-62
2022/09/25 11:16:46;;;;;;;3.72;2.45;;;;;;;17.43;48.96;99268.81;1736395;82;21045;-62
2022/09/25 11:19:36;;;;;;;3.52;2.90;;;;;;;17.55;48.75;99263.15;1729954;81;21210;-62
2022/09/25 11:22:24;;;;;;;2.90;2.15;;;;;;;17.68;48.15;99267.05;1736029;82;21048;-62
2022/09/25 11:25:22;;;;;;;3.55;2.72;;;;;;;17.75;47.49;99269.13;1727646;81;21030;-62
2022/09/25 11:27:54;;;;;;;3.87;2.33;;;;;;;17.80;47.55;99265.66;1723259;81;21014;-63
2022/09/25 11:30:22;;;;;;;2.58;2.37;;;;;;;17.80;46.49;99260.88;1719719;81;21096;-63
2022/09/25 11:33:22;;;;;;;3.52;2.50;;;;;;;17.80;46.49;99260.88;1729168;81;21231;-63
2022/09/25 11:36:04;;;;;;;3.72;2.87;;;;;;;17.76;46.75;99264.23;1730111;81;21060;-60
2022/09/25 11:42:08;;;;;;;2.53;2.33;;;;;;;17.71;47.26;99254.99;1733644;82;21002;-62
2022/09/25 11:44:58;;;;;;;4.17;2.42;;;;;;;17.73;47.11;99252.62;1736392;82;21421;-63
2022/09/25 11:48:05;;;;;;;2.22;2.00;;;;;;;17.69;46.80;99243.75;1725614;81;21165;-61
2022/09/25 11:51:05;;;;;;;3.25;2.25;;;;;;;17.64;47.37;99245.39;1739123;81;21017;-62
2022/09/25 11:53:56;;;;;;;3.72;2.40;;;;;;;17.72;47.27;99245.67;1711202;83;21006;-61
2022/09/25 11:56:37;;;;;;;3.40;2.15;;;;;;;17.81;46.37;99241.03;1728507;82;21159;-61
2022/09/25 11:59:19;;;;;;;2.95;2.00;;;;;;;17.81;45.63;99244.98;1732306;82;20939;-61
2022/09/25 12:01:57;;;;;;;2.25;2.05;;;;;;;17.74;45.90;99246.87;1732459;81;21266;-61
2022/09/25 12:04:37;;;;;;;5.30;2.77;;;;;;;17.63;46.49;99244.16;1724342;82;21174;-61
2022/09/25 12:07:38;;;;;;;5.25;2.33;;;;;;;17.53;47.20;99241.38;1736143;81;21544;-61
2022/09/25 12:10:22;;;;;;;3.08;2.00;;;;;;;17.47;47.55;99241.34;1732482;82;21128;-61
2022/09/25 12:13:10;;;;;;;2.33;1.70;;;;;;;17.40;47.82;99244.52;1726527;81;20946;-60
2022/09/25 12:16:19;;;;;;;2.22;2.02;;;;;;;17.37;47.71;99241.67;1732499;81;20950;-62
2022/09/25 12:19:14;;;;;;;5.22;2.30;;;;;;;17.43;47.84;99242.99;1735367;82;21083;-61